x

Cape Elizabeth- 45nm Nw Of Aberdeen, Wa (46041) Wave Buoy

9:50am - Tue 30th Jun 2015 All times are PDT. -7 hours from GMT.

  • Sig Wave height 3.3ft
  • Swell Direction
  • Peak Period 15s
  • Average Period 6s
  • Wind
    9mph, 11mph gusts
  • Sea Temp 57°f
  • 空気 Temp 57°f
  • Sea Pressure 1021mb
  • Cape Elizabeth- 45nm Nw Of Aberdeen, Wa
  • Cape Elizabeth- 45nm Nw Of Aberdeen, Wa

More Historic Weather Station data

Upgrade to MSW Pro to gain access to the past 30 days of data for over 8000 Wavebouys and Weather Stations around the globe.

Join Pro

Comparision Forecast

View Surf forecast
   
Tue 06/30 9:50am 3.5ft 15s 6s 9 11 mph 1021mb 57f 57f
8:50am 3.5ft 6s 6s 9 11 mph 1020.7mb 57f 57f
7:50am 3ft 15s 6s 9 11 mph 1020.6mb 57f 56f
6:50am 3ft 15s 6s 9 11 mph 1020.5mb 57f 56f
5:50am 2.5ft 15s 7s 7 9 mph 1020.2mb 56f 56f
4:50am 2.5ft 15s 7s 4 7 mph 1019.7mb 56f 57f
3:50am 2.5ft 15s 7s 7 9 mph 1019.5mb 56f 57f
2:50am 2.5ft 15s 7s 9 11 mph 1019.6mb 57f 57f
1:50am 2.5ft 15s 6s 4 7 mph 1019.5mb 57f 57f
12:50am 3ft 15s 7s 4 7 mph 1019.2mb 56f 58f
Mon 06/29 11:50pm 2.5ft 12s 6s 2
mph
1019.1mb 57f 58f
10:50pm 3ft 15s 6s  -  2 mph 1018.9mb 56f 57f
9:50pm 3ft 16s 6s 2
mph
1018.6mb 56f 57f
8:50pm 3ft 15s 6s 4
mph
1018.1mb 56f 56f
7:50pm 3ft 15s 6s 4 7 mph 1018mb 56f 56f
6:50pm 3ft 15s 6s 4 7 mph 1018mb 56f 56f
5:50pm 2.5ft 15s 7s 7
mph
1018.2mb 56f 56f
4:50pm 3ft 16s 7s 4 7 mph 1018.3mb 55f 56f
3:50pm 3ft 15s 6s 7 9 mph 1018.2mb 55f 55f
2:50pm 3ft 16s 6s 11
mph
1018.3mb 55f 55f
1:50pm 2.5ft 16s 5s 11 13 mph 1018.2mb 55f 55f
12:50pm 2.5ft 16s 6s 11 13 mph 1017.9mb 55f 55f
11:50am 2.5ft 16s 6s 9 11 mph 1017.9mb 55f 55f
10:50am 3ft 16s 6s 9
mph
1017.5mb 55f 55f
9:50am 3ft 16s 6s 11 13 mph 1016.9mb 55f 55f
8:50am 2.5ft 16s 6s 9 11 mph 1016.5mb 55f 54f
7:50am 3ft 16s 6s 7 9 mph 1016.4mb 54f 54f
6:50am 3ft 16s 6s 7 9 mph 1016mb 55f 55f
5:50am 3ft 9s 6s 9 11 mph 1015.5mb 55f 55f
4:50am 3ft 16s 7s 9 11 mph 1015.4mb 55f 54f
3:50am 3ft 9s 7s 11 13 mph 1015.1mb 55f 54f
2:50am 3.5ft 9s 7s 7
mph
1015mb 55f 53f
1:50am 3.5ft 9s 6s 4 7 mph 1014.8mb 55f 54f
12:50am 3.5ft 9s 6s 4
mph
1014.8mb 55f 55f
Sun 06/28 11:50pm 3.5ft 9s 6s 4
mph
1014.8mb 55f 57f
10:50pm 3.5ft 8s 6s 11 16 mph 1014.3mb 54f 57f
9:50pm 3.5ft 9s 6s 11
mph
1013.6mb 54f 57f
8:50pm 3.5ft 8s 6s  -  2 mph 1013.1mb 54f 55f
7:50pm 3.5ft 8s 6s 4 7 mph 1014.3mb 54f 55f
6:50pm 3.5ft 9s 6s 11 13 mph 1015.2mb 54f 55f
5:50pm 3.5ft 9s 6s 11 13 mph 1016.4mb 54f 53f
4:50pm 3.5ft 9s 6s 11 13 mph 1016.7mb 54f 54f
3:50pm 4ft 9s 6s 11 13 mph 1016.1mb 53f 55f
2:50pm 4ft 9s 6s 16 18 mph 1015.6mb 53f 56f
1:50pm 3.5ft 9s 6s 4 7 mph 1013.8mb 54f 56f
12:50pm 4ft 9s 6s 7
mph
1014.1mb 53f 55f
11:50am 4.5ft 10s 6s 9 11 mph 1015.5mb 53f 53f
10:50am 4ft 10s 6s 13 16 mph 1015.9mb 53f 53f
9:50am 4.5ft 10s 5s 18 20 mph 1016.2mb 53f 53f
8:50am 4.5ft 7s 6s 16 18 mph 1014.9mb 53f 52f
7:50am 4.5ft 9s 6s 13 18 mph 1014.2mb 53f 52f
6:50am 4.5ft 9s 6s 11 13 mph 1013.8mb 52f 53f
5:50am 4ft 6s 6s 7 9 mph 1013.4mb 52f 53f
4:50am 4ft 8s 6s 2 4 mph 1013mb 52f 53f
3:50am 3.5ft 9s 5s 2
mph
1013.1mb 52f 56f
2:50am 3.5ft 8s 6s 4
mph
1013mb 52f 56f
1:50am 3.5ft 8s 5s 9
mph
1013mb 52f 57f
12:50am 3.5ft 9s 5s 13
mph
1013.1mb 53f 57f
Sat 06/27 11:50pm 3.5ft 7s 5s 11
mph
1013.3mb 53f 57f
10:50pm 4ft 7s 5s 13 16 mph 1013.1mb 54f 59f
9:50pm 4.5ft 7s 5s 18 22 mph 1011.9mb 54f 60f
8:50pm 4.5ft 7s 5s 22 25 mph 1011.9mb 55f 60f
7:50pm 4.5ft 7s 5s 22 25 mph 1011.7mb 55f 61f
6:50pm 4.5ft 7s 5s 18 22 mph 1012.6mb 55f 61f
5:50pm 4.5ft 8s 5s 7 9 mph 1013.7mb 55f 59f
4:50pm 4.5ft 8s 6s 13 16 mph 1013.4mb 56f 59f
3:50pm 4.5ft 8s 6s 4 7 mph 1014.6mb 56f 57f
2:50pm 4.5ft 8s 6s 7 9 mph 1014.6mb 55f 57f
1:50pm 4.5ft 8s 6s 9 11 mph 1015.3mb 56f 58f
12:50pm 4.5ft 8s 6s 11 13 mph 1015.6mb 55f 57f
11:50am 4.5ft 8s 6s 9 11 mph 1015.6mb 56f 57f
10:50am 4.5ft 6s 5s 7 9 mph 1015.2mb 55f 57f
9:50am 5ft 9s 5s 13 16 mph 1015.1mb 54f 56f
8:50am 5ft 7s 5s 7 9 mph 1015.3mb 54f 55f
7:50am 5ft 7s 5s 7 9 mph 1015.8mb 53f 56f
6:50am 5ft 7s 5s 22 27 mph 1013.8mb 52f 56f
5:50am 5ft 9s 6s 13 16 mph 1015.6mb 53f 56f
4:50am 5ft 9s 6s 13
mph
1015.4mb 53f 55f
3:50am 5ft 7s 6s 13 16 mph 1015.4mb 53f 55f
2:50am 4.5ft 10s 6s 13
mph
1015.9mb 53f 55f
1:50am 5ft 6s 5s 11
mph
1016.2mb 53f 55f
12:50am 5ft 9s 6s 13 16 mph 1016.1mb 53f 55f
Fri 06/26 11:50pm 5ft 6s 5s 16 18 mph 1016mb 53f 55f
10:50pm 6ft 8s 6s 18 20 mph 1016.2mb 53f 56f
9:50pm 5.5ft 8s 5s 18 20 mph 1016.3mb 54f 56f
8:50pm 5ft 9s 5s 20 22 mph 1015.8mb 54f 56f
7:50pm 5.5ft 8s 5s 20 22 mph 1016.3mb 55f 57f
6:50pm 5ft 8s 5s 20 25 mph 1016.9mb 55f 57f
5:50pm 5ft 5s 5s 20 25 mph 1017.3mb 55f 57f